createdAt,value
2017-03-23T00:00:08.639Z,5.74
2017-03-23T00:01:08.937Z,5.81
2017-03-23T00:02:08.913Z,5.73
2017-03-23T00:03:08.897Z,5.78
2017-03-23T00:04:08.883Z,5.82
2017-03-23T00:05:08.869Z,5.81
2017-03-23T00:06:08.845Z,5.86
2017-03-23T00:07:08.827Z,5.88
2017-03-23T00:08:08.849Z,5.83
2017-03-23T00:09:08.791Z,5.82
2017-03-23T00:10:08.769Z,5.77
2017-03-23T00:11:08.786Z,5.86
2017-03-23T00:12:08.426Z,5.85
2017-03-23T00:13:08.715Z,5.81
2017-03-23T00:14:08.696Z,5.89
2017-03-23T00:15:08.675Z,5.88
2017-03-23T00:16:08.663Z,5.88
2017-03-23T00:17:08.328Z,5.82
2017-03-23T00:18:08.621Z,5.92
2017-03-23T00:19:08.610Z,5.92
2017-03-23T00:20:08.605Z,5.93
2017-03-23T00:21:08.564Z,5.92
2017-03-23T00:22:07.925Z,5.86
2017-03-23T00:23:08.530Z,5.83
2017-03-23T00:24:08.517Z,5.83
2017-03-23T00:25:08.548Z,5.78
2017-03-23T00:26:08.475Z,5.77
2017-03-23T00:27:08.170Z,5.77
2017-03-23T00:28:08.439Z,5.74
2017-03-23T00:29:08.420Z,5.77
2017-03-23T00:30:08.401Z,5.71
2017-03-23T00:31:08.385Z,5.75
2017-03-23T00:32:07.737Z,5.74
2017-03-23T00:33:08.349Z,5.67
2017-03-23T00:34:08.050Z,5.6
2017-03-23T00:35:08.360Z,5.68
2017-03-23T00:36:08.343Z,5.7
2017-03-23T00:37:08.281Z,5.73
2017-03-23T00:38:08.258Z,5.64
2017-03-23T00:39:07.926Z,5.7
2017-03-23T00:40:08.221Z,5.68
2017-03-23T00:41:08.205Z,5.77
2017-03-23T00:42:08.180Z,5.71
2017-03-23T00:43:07.856Z,5.71
2017-03-23T00:44:07.830Z,5.7
2017-03-23T00:45:07.810Z,5.73
2017-03-23T00:46:08.162Z,5.68
2017-03-23T00:47:08.089Z,5.74
2017-03-23T00:48:07.756Z,5.64
2017-03-23T00:49:07.740Z,5.77
2017-03-23T00:50:08.031Z,5.71
2017-03-23T00:51:08.015Z,5.71
2017-03-23T00:52:08.000Z,5.82
2017-03-23T00:53:07.981Z,5.74
2017-03-23T00:54:07.963Z,5.63
2017-03-23T00:55:07.940Z,5.66
2017-03-23T00:56:07.614Z,5.66
2017-03-23T00:57:07.905Z,5.6
2017-03-23T00:58:07.888Z,5.6
2017-03-23T00:59:07.875Z,5.64
2017-03-23T01:00:07.550Z,5.56
2017-03-23T01:01:07.828Z,5.56
2017-03-23T01:02:07.812Z,5.59
2017-03-23T01:03:07.797Z,5.56
2017-03-23T01:04:07.773Z,5.57
2017-03-23T01:05:07.758Z,5.63
2017-03-23T01:06:07.750Z,5.53
2017-03-23T01:07:07.730Z,5.41
2017-03-23T01:08:07.717Z,5.46
2017-03-23T01:09:07.371Z,5.43
2017-03-23T01:10:07.673Z,5.48
2017-03-23T01:11:07.331Z,5.43
2017-03-23T01:12:07.318Z,5.43
2017-03-23T01:13:07.609Z,5.38
2017-03-23T01:14:07.588Z,5.38
2017-03-23T01:15:07.583Z,5.35
2017-03-23T01:16:07.552Z,5.32
2017-03-23T01:17:07.530Z,5.3
2017-03-23T01:18:07.514Z,5.23
2017-03-23T01:19:07.498Z,5.27
2017-03-23T01:20:07.486Z,5.14
2017-03-23T01:21:07.198Z,5.16
2017-03-23T01:22:07.443Z,5.23
2017-03-23T01:23:06.797Z,5.13
2017-03-23T01:24:07.410Z,5.25
2017-03-23T01:25:07.393Z,5.25
2017-03-23T01:26:07.366Z,5.19
2017-03-23T01:27:07.347Z,5.25
2017-03-23T01:28:07.322Z,5.22
2017-03-23T01:29:07.308Z,5.14
2017-03-23T01:30:06.981Z,5.17
2017-03-23T01:31:07.271Z,5.12
2017-03-23T01:32:07.252Z,5.23
2017-03-23T01:33:07.234Z,5.16
2017-03-23T01:34:07.210Z,5.17
2017-03-23T01:35:07.221Z,5.19
2017-03-23T01:36:07.179Z,5.19
2017-03-23T01:37:07.166Z,5.16
2017-03-23T01:38:06.828Z,5.12
2017-03-23T01:39:07.141Z,5.16
2017-03-23T01:40:07.098Z,5.13
2017-03-23T01:41:07.080Z,5.12
2017-03-23T01:42:07.065Z,5.13
2017-03-23T01:43:07.043Z,5.13
2017-03-23T01:44:07.027Z,5.05
2017-03-23T01:45:07.013Z,5.14
2017-03-23T01:46:06.992Z,5.16
2017-03-23T01:47:06.685Z,5.25
2017-03-23T01:48:06.948Z,5.14
2017-03-23T01:49:06.946Z,5.23
2017-03-23T01:50:06.916Z,5.3
2017-03-23T01:51:06.893Z,5.3
2017-03-23T01:52:06.564Z,5.27
2017-03-23T01:53:06.542Z,5.3
2017-03-23T01:54:06.836Z,5.45
2017-03-23T01:55:06.817Z,5.5
2017-03-23T01:56:06.796Z,5.49
2017-03-23T01:57:06.475Z,5.49
2017-03-23T01:58:06.454Z,5.59
2017-03-23T01:59:06.756Z,5.56
2017-03-23T02:00:06.722Z,5.59
2017-03-23T02:01:06.712Z,5.56
2017-03-23T02:02:06.701Z,5.67
2017-03-23T02:03:06.664Z,5.67
2017-03-23T02:04:06.646Z,5.63
2017-03-23T02:05:06.622Z,5.64
2017-03-23T02:06:06.606Z,5.82
2017-03-23T02:07:06.591Z,5.81
2017-03-23T02:08:06.567Z,5.82
2017-03-23T02:09:06.551Z,5.86
2017-03-23T02:10:06.218Z,5.78
2017-03-23T02:11:06.523Z,5.82
2017-03-23T02:12:06.525Z,5.88
2017-03-23T02:13:06.478Z,5.83
2017-03-23T02:14:06.454Z,5.92
2017-03-23T02:15:06.441Z,5.95
2017-03-23T02:16:06.425Z,5.98
2017-03-23T02:17:06.405Z,5.91
2017-03-23T02:18:06.069Z,5.98
2017-03-23T02:19:06.368Z,6.01
2017-03-23T02:20:06.340Z,6.07
2017-03-23T02:21:06.017Z,6.11
2017-03-23T02:22:06.307Z,6.1
2017-03-23T02:23:06.299Z,6.13
2017-03-23T02:24:06.269Z,6.21
2017-03-23T02:25:06.255Z,6.21
2017-03-23T02:26:06.231Z,6.29
2017-03-23T02:27:06.217Z,6.28
2017-03-23T02:28:06.195Z,6.29
2017-03-23T02:29:05.873Z,6.25
2017-03-23T02:30:06.161Z,6.46
2017-03-23T02:31:06.189Z,6.4
2017-03-23T02:32:06.121Z,6.44
2017-03-23T02:33:06.110Z,6.46
2017-03-23T02:34:05.812Z,6.51
2017-03-23T02:35:05.753Z,6.59
2017-03-23T02:36:06.051Z,6.61
2017-03-23T02:37:06.031Z,6.54
2017-03-23T02:38:06.011Z,6.51
2017-03-23T02:39:05.366Z,6.59
2017-03-23T02:40:05.661Z,6.58
2017-03-23T02:41:05.967Z,6.61
2017-03-23T02:42:05.937Z,6.62
2017-03-23T02:43:05.604Z,6.63
2017-03-23T02:44:05.590Z,6.69
2017-03-23T02:45:05.258Z,6.61
2017-03-23T02:46:05.904Z,6.69
2017-03-23T02:47:05.847Z,6.77
2017-03-23T02:48:05.827Z,6.73
2017-03-23T02:49:05.811Z,6.77
2017-03-23T02:50:05.789Z,6.69
2017-03-23T02:51:05.772Z,6.71
2017-03-23T02:52:05.439Z,6.72
2017-03-23T02:53:05.422Z,6.76
2017-03-23T02:54:05.716Z,6.79
2017-03-23T02:55:05.704Z,6.79
2017-03-23T02:56:05.680Z,6.76
2017-03-23T02:57:05.664Z,6.86
2017-03-23T02:58:05.645Z,6.86
2017-03-23T02:59:05.628Z,6.79
2017-03-23T03:00:05.299Z,6.9
2017-03-23T03:01:05.592Z,6.9
2017-03-23T03:02:05.572Z,6.86
2017-03-23T03:03:05.557Z,6.89
2017-03-23T03:04:05.537Z,6.95
2017-03-23T03:05:05.521Z,6.87
2017-03-23T03:06:05.503Z,6.94
2017-03-23T03:07:05.483Z,6.9
2017-03-23T03:08:05.151Z,6.95
2017-03-23T03:09:05.447Z,6.98
2017-03-23T03:10:05.431Z,6.99
2017-03-23T03:11:05.411Z,6.84
2017-03-23T03:12:05.399Z,7.01
2017-03-23T03:13:05.377Z,7.07
2017-03-23T03:14:05.366Z,6.97
2017-03-23T03:15:05.343Z,7.01
2017-03-23T03:16:05.325Z,6.99
2017-03-23T03:17:05.310Z,6.99
2017-03-23T03:18:05.297Z,6.97
2017-03-23T03:19:05.275Z,6.98
2017-03-23T03:20:05.254Z,7.01
2017-03-23T03:21:05.235Z,7.05
2017-03-23T03:22:04.908Z,7.04
2017-03-23T03:23:05.200Z,7.05
2017-03-23T03:24:05.186Z,7.04
2017-03-23T03:25:04.904Z,7.04
2017-03-23T03:26:05.146Z,6.97
2017-03-23T03:27:05.132Z,7.05
2017-03-23T03:28:05.114Z,7.07
2017-03-23T03:29:05.095Z,7.07
2017-03-23T03:30:05.081Z,7.02
2017-03-23T03:31:05.061Z,6.97
2017-03-23T03:32:05.043Z,7.05
2017-03-23T03:33:05.021Z,7.07
2017-03-23T03:34:04.379Z,7.09
2017-03-23T03:35:04.993Z,6.97
2017-03-23T03:36:04.660Z,7.09
2017-03-23T03:37:04.638Z,7.15
2017-03-23T03:38:04.935Z,7.15
2017-03-23T03:39:04.909Z,7.04
2017-03-23T03:40:04.905Z,7.09
2017-03-23T03:41:04.884Z,7.13
2017-03-23T03:42:04.553Z,7.12
2017-03-23T03:43:04.843Z,7.23
2017-03-23T03:44:04.826Z,7.09
2017-03-23T03:45:04.804Z,7.13
2017-03-23T03:46:04.823Z,7.17
2017-03-23T03:47:04.773Z,7.2
2017-03-23T03:48:04.755Z,7.17
2017-03-23T03:49:04.746Z,7.15
2017-03-23T03:50:04.727Z,7.12
2017-03-23T03:51:04.704Z,7.19
2017-03-23T03:52:04.688Z,7.26
2017-03-23T03:53:04.668Z,7.29
2017-03-23T03:54:04.337Z,7.15
2017-03-23T03:55:04.636Z,7.15
2017-03-23T03:56:04.615Z,7.23
2017-03-23T03:57:04.600Z,7.22
2017-03-23T03:58:04.267Z,7.22
2017-03-23T03:59:04.562Z,7.24
2017-03-23T04:00:04.543Z,7.26
2017-03-23T04:01:04.547Z,7.27
2017-03-23T04:02:04.512Z,7.19
2017-03-23T04:03:04.185Z,7.23
2017-03-23T04:04:04.163Z,7.23
2017-03-23T04:05:04.457Z,7.32
2017-03-23T04:06:04.439Z,7.24
2017-03-23T04:07:04.426Z,7.35
2017-03-23T04:08:04.405Z,7.34
2017-03-23T04:09:04.388Z,7.32
2017-03-23T04:10:04.371Z,7.29
2017-03-23T04:11:04.354Z,7.32
2017-03-23T04:12:04.337Z,7.29
2017-03-23T04:13:04.315Z,7.32
2017-03-23T04:14:04.297Z,7.34
2017-03-23T04:15:04.284Z,7.34
2017-03-23T04:16:04.016Z,7.26
2017-03-23T04:17:04.255Z,7.23
2017-03-23T04:18:04.233Z,7.22
2017-03-23T04:19:04.215Z,7.24
2017-03-23T04:20:04.194Z,7.35
2017-03-23T04:21:04.177Z,7.29
2017-03-23T04:22:03.544Z,7.35
2017-03-23T04:23:04.142Z,7.34
2017-03-23T04:24:04.126Z,7.34
2017-03-23T04:25:04.109Z,7.32
2017-03-23T04:26:03.779Z,7.31
2017-03-23T04:27:04.135Z,7.32
2017-03-23T04:28:03.746Z,7.32
2017-03-23T04:29:03.725Z,7.35
2017-03-23T04:30:03.708Z,7.34
2017-03-23T04:31:03.689Z,7.32
2017-03-23T04:32:03.673Z,7.32
2017-03-23T04:33:03.652Z,7.32
2017-03-23T04:34:03.641Z,7.34
2017-03-23T04:35:03.929Z,7.37
2017-03-23T04:36:03.916Z,7.34
2017-03-23T04:37:03.590Z,7.34
2017-03-23T04:38:03.877Z,7.29
2017-03-23T04:39:03.545Z,7.37
2017-03-23T04:40:03.531Z,7.24
2017-03-23T04:41:03.834Z,7.34
2017-03-23T04:42:03.813Z,7.34
2017-03-23T04:43:03.481Z,7.34
2017-03-23T04:44:03.782Z,7.27
2017-03-23T04:45:03.443Z,7.29
2017-03-23T04:46:03.744Z,7.29
2017-03-23T04:47:03.718Z,7.35
2017-03-23T04:48:03.706Z,7.35
2017-03-23T04:49:03.694Z,7.34
2017-03-23T04:50:03.678Z,7.26
2017-03-23T04:51:03.652Z,7.27
2017-03-23T04:52:03.325Z,7.31
2017-03-23T04:53:03.357Z,7.35
2017-03-23T04:54:03.290Z,7.31
2017-03-23T04:55:03.629Z,7.37
2017-03-23T04:56:03.567Z,7.29
2017-03-23T04:57:03.553Z,7.31
2017-03-23T04:58:03.533Z,7.34
2017-03-23T04:59:03.510Z,7.37
2017-03-23T05:00:03.500Z,7.37
2017-03-23T05:01:03.489Z,7.35
2017-03-23T05:02:03.463Z,7.35
2017-03-23T05:03:03.446Z,7.34
2017-03-23T05:04:03.420Z,7.32
2017-03-23T05:05:03.412Z,7.4
2017-03-23T05:06:03.436Z,7.45
2017-03-23T05:07:03.370Z,7.41
2017-03-23T05:08:03.357Z,7.38
2017-03-23T05:09:03.338Z,7.32
2017-03-23T05:10:03.322Z,7.42
2017-03-23T05:11:03.305Z,7.4
2017-03-23T05:12:02.979Z,7.37
2017-03-23T05:13:03.268Z,7.37
2017-03-23T05:14:03.252Z,7.42
2017-03-23T05:15:03.230Z,7.38
2017-03-23T05:16:03.215Z,7.41
2017-03-23T05:17:03.198Z,7.35
2017-03-23T05:18:03.179Z,7.45
2017-03-23T05:19:03.165Z,7.4
2017-03-23T05:20:02.830Z,7.41
2017-03-23T05:21:03.128Z,7.44
2017-03-23T05:22:03.108Z,7.38
2017-03-23T05:23:03.096Z,7.44
2017-03-23T05:24:02.762Z,7.41
2017-03-23T05:25:02.750Z,7.44
2017-03-23T05:26:03.250Z,7.45
2017-03-23T05:27:03.022Z,7.44
2017-03-23T05:28:03.004Z,7.44
2017-03-23T05:29:02.986Z,7.44
2017-03-23T05:30:02.971Z,7.47
2017-03-23T05:31:02.958Z,7.47
2017-03-23T05:32:02.934Z,7.47
2017-03-23T05:33:02.915Z,7.55
2017-03-23T05:34:02.899Z,7.44
2017-03-23T05:35:02.882Z,7.52
2017-03-23T05:36:02.900Z,7.5
2017-03-23T05:37:02.845Z,7.55
2017-03-23T05:38:02.830Z,7.55
2017-03-23T05:39:02.813Z,7.5
2017-03-23T05:40:02.793Z,7.52
2017-03-23T05:41:02.776Z,7.5
2017-03-23T05:42:02.761Z,7.62
2017-03-23T05:43:02.743Z,7.56
2017-03-23T05:44:02.725Z,7.62
2017-03-23T05:45:02.712Z,7.58
2017-03-23T05:46:02.694Z,7.6
2017-03-23T05:47:02.413Z,7.6
2017-03-23T05:48:02.663Z,7.56
2017-03-23T05:49:02.324Z,7.62
2017-03-23T05:50:02.631Z,7.62
2017-03-23T05:51:02.606Z,7.66
2017-03-23T05:52:02.591Z,7.66
2017-03-23T05:53:02.571Z,7.62
2017-03-23T05:54:02.242Z,7.67
2017-03-23T05:55:02.227Z,7.66
2017-03-23T05:56:02.568Z,7.58
2017-03-23T05:57:02.499Z,7.62
2017-03-23T05:58:02.482Z,7.72
2017-03-23T05:59:02.149Z,7.67
2017-03-23T06:00:02.131Z,7.66
2017-03-23T06:01:02.436Z,7.71
2017-03-23T06:02:02.414Z,7.71
2017-03-23T06:03:02.400Z,7.72
2017-03-23T06:04:02.066Z,7.72
2017-03-23T06:05:02.369Z,7.72
2017-03-23T06:06:02.345Z,7.66
2017-03-23T06:07:01.702Z,7.77
2017-03-23T06:08:01.683Z,7.82
2017-03-23T06:09:02.297Z,7.78
2017-03-23T06:10:02.275Z,7.75
2017-03-23T06:11:02.263Z,7.67
2017-03-23T06:12:01.931Z,7.75
2017-03-23T06:13:01.965Z,7.74
2017-03-23T06:14:01.896Z,7.78
2017-03-23T06:15:02.194Z,7.84
2017-03-23T06:16:02.171Z,7.77
2017-03-23T06:17:02.165Z,7.71
2017-03-23T06:18:01.826Z,7.82
2017-03-23T06:19:02.125Z,7.79
2017-03-23T06:20:02.116Z,7.93
2017-03-23T06:21:02.091Z,7.84
2017-03-23T06:22:02.119Z,7.92
2017-03-23T06:23:01.738Z,7.9
2017-03-23T06:24:01.763Z,7.85
2017-03-23T06:25:02.015Z,7.82
2017-03-23T06:26:02.012Z,7.82
2017-03-23T06:27:01.979Z,7.85
2017-03-23T06:28:01.963Z,7.94
2017-03-23T06:29:02.016Z,7.94
2017-03-23T06:30:01.931Z,7.99
2017-03-23T06:31:01.915Z,7.99
2017-03-23T06:32:01.898Z,8.02
2017-03-23T06:33:01.878Z,8
2017-03-23T06:34:01.547Z,8.07
2017-03-23T06:35:01.848Z,8.02
2017-03-23T06:36:01.830Z,8.11
2017-03-23T06:37:01.810Z,8.11
2017-03-23T06:38:01.794Z,8.18
2017-03-23T06:39:01.829Z,8.15
2017-03-23T06:40:01.760Z,8.17
2017-03-23T06:41:01.739Z,8.14
2017-03-23T06:42:01.726Z,8.28
2017-03-23T06:43:01.710Z,8.22
2017-03-23T06:44:01.693Z,8.25
2017-03-23T06:45:01.681Z,8.35
2017-03-23T06:46:01.662Z,8.35
2017-03-23T06:47:01.645Z,8.32
2017-03-23T06:48:01.623Z,8.35
2017-03-23T06:49:01.613Z,8.32
2017-03-23T06:50:01.593Z,8.36
2017-03-23T06:51:01.584Z,8.33
2017-03-23T06:52:01.559Z,8.42
2017-03-23T06:53:01.554Z,8.42
2017-03-23T06:54:01.524Z,8.44
2017-03-23T06:55:01.507Z,8.47
2017-03-23T06:56:01.531Z,8.53
2017-03-23T06:57:01.475Z,8.51
2017-03-23T06:58:01.464Z,8.57
2017-03-23T06:59:01.447Z,8.55
2017-03-23T07:00:01.429Z,8.71
2017-03-23T07:01:01.409Z,8.69
2017-03-23T07:02:01.394Z,8.63
2017-03-23T07:03:01.381Z,8.73
2017-03-23T07:04:01.373Z,8.73
2017-03-23T07:05:01.353Z,8.78
2017-03-23T07:06:01.335Z,8.72
2017-03-23T07:07:01.315Z,8.87
2017-03-23T07:08:01.301Z,8.87
2017-03-23T07:09:01.279Z,8.83
2017-03-23T07:10:01.263Z,8.81
2017-03-23T07:11:01.247Z,8.9
2017-03-23T07:12:01.242Z,8.93
2017-03-23T07:13:01.219Z,8.96
2017-03-23T07:14:01.203Z,8.94
2017-03-23T07:15:01.186Z,9.04
2017-03-23T07:16:00.855Z,9.05
2017-03-23T07:17:01.152Z,9.09
2017-03-23T07:18:01.136Z,9.16
2017-03-23T07:19:00.807Z,9.18
2017-03-23T07:20:00.792Z,9.28
2017-03-23T07:21:00.779Z,9.23
2017-03-23T07:22:00.765Z,9.25
2017-03-23T07:23:01.057Z,9.28
2017-03-23T07:24:00.767Z,9.32
2017-03-23T07:25:00.718Z,9.4
2017-03-23T07:26:00.905Z,9.4
2017-03-23T07:27:00.686Z,9.4
2017-03-23T07:28:00.665Z,9.56
2017-03-23T07:29:00.657Z,9.52
2017-03-23T07:30:00.952Z,9.6
2017-03-23T07:31:00.628Z,9.63
2017-03-23T07:32:00.918Z,9.75
2017-03-23T07:33:00.902Z,9.73
2017-03-23T07:34:00.896Z,9.86
2017-03-23T07:35:00.877Z,9.78
2017-03-23T07:36:00.892Z,9.81
2017-03-23T07:37:00.843Z,9.83
2017-03-23T07:38:00.828Z,9.81
2017-03-23T07:39:00.814Z,9.83
2017-03-23T07:40:00.799Z,9.79
2017-03-23T07:41:00.488Z,9.86
2017-03-23T07:42:00.782Z,9.97
2017-03-23T07:43:00.762Z,9.97
2017-03-23T07:44:00.425Z,9.91
2017-03-23T07:45:00.097Z,9.93
2017-03-23T07:46:00.711Z,9.89
2017-03-23T07:47:00.690Z,10.03
2017-03-23T07:48:00.050Z,10.06
2017-03-23T07:49:00.351Z,10.19
2017-03-23T07:50:00.648Z,10.19
2017-03-23T07:51:00.320Z,10.15
2017-03-23T07:52:00.309Z,10.33
2017-03-23T07:53:00.288Z,10.42
2017-03-23T07:54:00.276Z,10.53
2017-03-23T07:55:00.572Z,10.65
2017-03-23T07:56:00.566Z,10.7
2017-03-23T07:57:00.549Z,10.91
2017-03-23T07:58:00.532Z,10.94
2017-03-23T07:59:00.521Z,10.99
2017-03-23T08:00:00.506Z,10.95
2017-03-23T08:01:00.498Z,10.98
2017-03-23T08:02:00.474Z,11.02
2017-03-23T08:03:00.148Z,11.07
2017-03-23T08:04:00.446Z,10.99
2017-03-23T08:05:00.436Z,11.09
2017-03-23T08:06:00.422Z,11.11
2017-03-23T08:07:00.465Z,11.25
2017-03-23T08:08:00.390Z,11.31
2017-03-23T08:09:00.067Z,11.27
2017-03-23T08:10:00.091Z,11.31
2017-03-23T08:11:00.354Z,11.43
2017-03-23T08:12:00.338Z,11.47
2017-03-23T08:13:00.011Z,11.35
2017-03-23T08:14:00.309Z,11.32
2017-03-23T08:14:59.672Z,11.36
2017-03-23T08:15:59.975Z,11.34
2017-03-23T08:17:00.271Z,11.38
2017-03-23T08:18:00.260Z,11.52
2017-03-23T08:19:00.244Z,11.52
2017-03-23T08:20:00.234Z,11.36
2017-03-23T08:21:00.217Z,11.47
2017-03-23T08:22:00.217Z,11.77
2017-03-23T08:23:00.190Z,12.79
2017-03-23T08:24:00.185Z,13.94
2017-03-23T08:25:00.169Z,14.71
2017-03-23T08:26:00.161Z,15.63
2017-03-23T08:26:59.832Z,16.45
2017-03-23T08:28:00.135Z,17.08
2017-03-23T08:29:00.124Z,17
2017-03-23T08:30:00.112Z,16.75
2017-03-23T08:31:00.103Z,16.6
2017-03-23T08:31:59.832Z,16.48
2017-03-23T08:33:00.093Z,16.9
2017-03-23T08:34:00.080Z,17.35
2017-03-23T08:35:00.067Z,18.06
2017-03-23T08:36:00.062Z,18.76
2017-03-23T08:37:00.058Z,19.06
2017-03-23T08:38:00.046Z,19.06
2017-03-23T08:39:00.040Z,19.14
2017-03-23T08:40:00.031Z,19.36
2017-03-23T08:41:00.064Z,19.43
2017-03-23T08:42:00.021Z,19.36
2017-03-23T08:43:00.010Z,18.86
2017-03-23T08:44:00.006Z,18.46
2017-03-23T08:44:59.684Z,18.4
2017-03-23T08:45:59.991Z,18.22
2017-03-23T08:46:59.986Z,17.76
2017-03-23T08:47:59.984Z,17.47
2017-03-23T08:48:59.976Z,17.51
2017-03-23T08:49:59.972Z,17.11
2017-03-23T08:50:59.965Z,17.13
2017-03-23T08:51:59.644Z,16.96
2017-03-23T08:52:59.952Z,16.77
2017-03-23T08:53:59.635Z,16.73
2017-03-23T08:54:59.624Z,16.49
2017-03-23T08:55:59.930Z,16.27
2017-03-23T08:56:59.927Z,16.04
2017-03-23T08:57:59.924Z,16
2017-03-23T08:58:59.908Z,16.27
2017-03-23T08:59:59.908Z,16.33
2017-03-23T09:00:59.898Z,16.35
2017-03-23T09:01:59.270Z,16.38
2017-03-23T09:02:59.576Z,16.49
2017-03-23T09:03:59.885Z,16.48
2017-03-23T09:04:59.882Z,16.59
2017-03-23T09:05:59.560Z,16.56
2017-03-23T09:06:59.869Z,16.62
2017-03-23T09:07:59.884Z,16.53
2017-03-23T09:08:59.867Z,16.4
2017-03-23T09:09:59.843Z,16.25
2017-03-23T09:10:59.837Z,16.4
2017-03-23T09:11:59.846Z,16.25
2017-03-23T09:12:59.832Z,16.04
2017-03-23T09:13:59.825Z,15.79
2017-03-23T09:14:59.865Z,15.97
2017-03-23T09:15:59.812Z,16.15
2017-03-23T09:16:59.487Z,16.45
2017-03-23T09:17:59.804Z,16.71
2017-03-23T09:18:59.794Z,16.98
2017-03-23T09:19:59.782Z,16.9
2017-03-23T09:20:59.780Z,17.04
2017-03-23T09:21:59.771Z,17.07
2017-03-23T09:22:59.764Z,17.15
2017-03-23T09:23:59.761Z,17.4
2017-03-23T09:24:59.755Z,17.67
2017-03-23T09:25:59.949Z,17.54
2017-03-23T09:26:59.437Z,17.28
2017-03-23T09:27:59.425Z,17.25
2017-03-23T09:28:59.433Z,17.28
2017-03-23T09:29:59.415Z,17.3
2017-03-23T09:30:59.102Z,17.35
2017-03-23T09:31:59.095Z,17.26
2017-03-23T09:32:59.402Z,16.99
2017-03-23T09:33:59.708Z,16.88
2017-03-23T09:34:59.390Z,16.55
2017-03-23T09:35:59.698Z,16.22
2017-03-23T09:36:59.695Z,16.11
2017-03-23T09:37:59.691Z,15.93
2017-03-23T09:38:59.686Z,15.92
2017-03-23T09:39:59.676Z,16.06
2017-03-23T09:40:59.090Z,16.38
2017-03-23T09:41:59.352Z,16.86
2017-03-23T09:42:59.651Z,17.15
2017-03-23T09:43:59.648Z,17.32
2017-03-23T09:44:59.639Z,17.23
2017-03-23T09:45:59.324Z,16.68
2017-03-23T09:46:59.319Z,16.74
2017-03-23T09:47:59.661Z,16.77
2017-03-23T09:48:59.611Z,16.83
2017-03-23T09:49:59.299Z,16.85
2017-03-23T09:50:59.293Z,16.75
2017-03-23T09:51:59.282Z,17.03
2017-03-23T09:52:59.590Z,17.18
2017-03-23T09:53:59.270Z,16.71
2017-03-23T09:54:59.582Z,16.16
2017-03-23T09:55:59.574Z,15.74
2017-03-23T09:56:59.572Z,15.46
2017-03-23T09:57:59.263Z,15.28
2017-03-23T09:58:59.563Z,15.06
2017-03-23T09:59:59.241Z,14.93
2017-03-23T10:00:59.538Z,14.87
2017-03-23T10:01:59.228Z,14.8
2017-03-23T10:02:59.211Z,14.8
2017-03-23T10:03:59.517Z,15.27
2017-03-23T10:04:59.200Z,15.59
2017-03-23T10:05:59.190Z,15.93
2017-03-23T10:06:59.494Z,16.04
2017-03-23T10:07:59.487Z,16.16
2017-03-23T10:08:59.485Z,16.18
2017-03-23T10:09:59.469Z,16.42
2017-03-23T10:10:59.463Z,16.44
2017-03-23T10:11:59.460Z,16.34
2017-03-23T10:12:59.459Z,16.34
2017-03-23T10:13:59.442Z,16.07
2017-03-23T10:14:59.435Z,15.74
2017-03-23T10:15:59.431Z,15.68
2017-03-23T10:16:59.421Z,15.49
2017-03-23T10:17:59.419Z,15.46
2017-03-23T10:18:59.412Z,15.43
2017-03-23T10:19:59.403Z,15.51
2017-03-23T10:20:59.397Z,15.28
2017-03-23T10:21:59.389Z,15.12
2017-03-23T10:22:59.433Z,15.23
2017-03-23T10:23:59.383Z,15.63
2017-03-23T10:24:59.378Z,15.93
2017-03-23T10:25:59.055Z,16.14
2017-03-23T10:26:59.353Z,16.77
2017-03-23T10:27:59.399Z,17.5
2017-03-23T10:28:59.345Z,17.95
2017-03-23T10:29:59.338Z,18.27
2017-03-23T10:30:59.330Z,18.68
2017-03-23T10:31:59.342Z,18.87
2017-03-23T10:32:59.326Z,19.11
2017-03-23T10:33:59.328Z,19.25
2017-03-23T10:34:59.310Z,19.25
2017-03-23T10:35:58.992Z,19.29
2017-03-23T10:36:58.983Z,19.15
2017-03-23T10:37:59.293Z,19.17
2017-03-23T10:38:58.976Z,19.1
2017-03-23T10:39:58.974Z,18.87
2017-03-23T10:40:59.284Z,18.82
2017-03-23T10:41:59.275Z,19.05
2017-03-23T10:42:59.270Z,19.33
2017-03-23T10:43:59.263Z,19.42
2017-03-23T10:44:59.258Z,19.39
2017-03-23T10:45:59.255Z,19.32
2017-03-23T10:46:59.253Z,19.05
2017-03-23T10:47:58.935Z,19.1
2017-03-23T10:48:59.249Z,19.38
2017-03-23T10:49:58.926Z,19.75
2017-03-23T10:50:59.240Z,20.43
2017-03-23T10:51:58.918Z,20.65
2017-03-23T10:52:58.914Z,20.54
2017-03-23T10:53:58.908Z,20.58
2017-03-23T10:54:58.905Z,20.8
2017-03-23T10:55:58.904Z,20.87
2017-03-23T10:56:58.896Z,20.79
2017-03-23T10:57:58.895Z,20.84
2017-03-23T10:58:58.900Z,21.09
2017-03-23T10:59:59.209Z,21.29
2017-03-23T11:00:59.199Z,21.53
2017-03-23T11:01:59.199Z,21.54
2017-03-23T11:02:58.884Z,21.46
2017-03-23T11:03:58.934Z,21.53
2017-03-23T11:04:59.254Z,21.27
2017-03-23T11:05:59.198Z,20.74
2017-03-23T11:06:59.195Z,20.66
2017-03-23T11:07:59.197Z,20.8
2017-03-23T11:08:59.195Z,20.81
2017-03-23T11:09:59.203Z,20.89
2017-03-23T11:10:59.186Z,21.13
2017-03-23T11:11:59.186Z,21.2
2017-03-23T11:12:59.191Z,21.38
2017-03-23T11:13:59.189Z,21.32
2017-03-23T11:14:59.184Z,20.58
2017-03-23T11:15:59.191Z,20.51
2017-03-23T11:16:59.183Z,20.74
2017-03-23T11:17:59.193Z,20.8
2017-03-23T11:18:59.179Z,20.91
2017-03-23T11:19:58.868Z,20.86
2017-03-23T11:20:59.181Z,20.91
2017-03-23T11:21:59.188Z,20.74
2017-03-23T11:22:59.185Z,20.77
2017-03-23T11:23:59.178Z,20.81
2017-03-23T11:24:59.183Z,20.86
2017-03-23T11:25:59.382Z,20.93
2017-03-23T11:26:58.868Z,21.05
2017-03-23T11:27:59.176Z,21.23
2017-03-23T11:28:59.175Z,20.39
2017-03-23T11:29:59.174Z,20.15
2017-03-23T11:30:59.181Z,20.15
2017-03-23T11:31:59.177Z,20.28
2017-03-23T11:32:59.191Z,20.61
2017-03-23T11:33:58.861Z,20.43
2017-03-23T11:34:59.178Z,20.3
2017-03-23T11:35:59.170Z,20.33
2017-03-23T11:36:59.170Z,20.42
2017-03-23T11:37:59.171Z,20.42
2017-03-23T11:38:59.176Z,20.28
2017-03-23T11:39:58.858Z,20.1
2017-03-23T11:40:59.169Z,20.15
2017-03-23T11:41:59.173Z,19.72
2017-03-23T11:42:59.177Z,19.55
2017-03-23T11:43:59.177Z,19.53
2017-03-23T11:44:59.170Z,19.87
2017-03-23T11:45:58.857Z,20.18
2017-03-23T11:46:58.861Z,20.15
2017-03-23T11:47:59.174Z,20.42
2017-03-23T11:48:58.848Z,20.42
2017-03-23T11:49:59.157Z,20.51
2017-03-23T11:50:59.153Z,20.83
2017-03-23T11:51:59.207Z,20.98
2017-03-23T11:52:58.838Z,21.2
2017-03-23T11:53:59.150Z,21.34
2017-03-23T11:54:58.835Z,21.21
2017-03-23T11:55:59.152Z,20.79
2017-03-23T11:56:59.148Z,20.87
2017-03-23T11:57:59.148Z,20.83
2017-03-23T11:58:58.843Z,20.89
2017-03-23T11:59:58.836Z,20.61
2017-03-23T12:00:59.157Z,20.98
2017-03-23T12:01:59.151Z,21.21
2017-03-23T12:02:59.144Z,20.87
2017-03-23T12:03:59.146Z,20.72
2017-03-23T12:04:59.200Z,20.58
2017-03-23T12:05:59.149Z,20.77
2017-03-23T12:06:59.155Z,21.11
2017-03-23T12:07:59.201Z,21.27
2017-03-23T12:08:59.145Z,21.54
2017-03-23T12:09:59.147Z,21.94
2017-03-23T12:10:59.152Z,21.9
2017-03-23T12:11:59.148Z,22.1
2017-03-23T12:12:59.152Z,21.29
2017-03-23T12:13:59.153Z,20.93
2017-03-23T12:14:59.157Z,20.8
2017-03-23T12:15:58.840Z,20.56
2017-03-23T12:16:58.837Z,20.8
2017-03-23T12:17:59.153Z,21.24
2017-03-23T12:18:59.150Z,21.48
2017-03-23T12:19:59.153Z,21.6
2017-03-23T12:20:59.151Z,22.04
2017-03-23T12:21:58.841Z,22.23
2017-03-23T12:22:59.160Z,22.34
2017-03-23T12:23:59.157Z,22.41
2017-03-23T12:24:59.157Z,22.49
2017-03-23T12:25:59.158Z,22.13
2017-03-23T12:26:59.161Z,21.91
2017-03-23T12:27:59.163Z,21.34
2017-03-23T12:28:58.856Z,21.09
2017-03-23T12:29:59.163Z,20.77
2017-03-23T12:30:59.163Z,20.46
2017-03-23T12:31:59.167Z,20.41
2017-03-23T12:32:59.368Z,20.38
2017-03-23T12:33:59.166Z,20.41
2017-03-23T12:34:59.169Z,20.27
2017-03-23T12:35:59.165Z,20.53
2017-03-23T12:36:59.171Z,20.87
2017-03-23T12:37:58.862Z,20.91
2017-03-23T12:38:59.168Z,21.04
2017-03-23T12:39:59.177Z,20.98
2017-03-23T12:40:59.169Z,20.61
2017-03-23T12:41:59.174Z,20.38
2017-03-23T12:42:59.166Z,20.31
2017-03-23T12:43:59.170Z,20.3
2017-03-23T12:44:59.166Z,20.34
2017-03-23T12:45:59.165Z,20.71
2017-03-23T12:46:59.167Z,20.65
2017-03-23T12:47:59.161Z,20.96
2017-03-23T12:48:59.162Z,20.74
2017-03-23T12:49:59.167Z,20.59
2017-03-23T12:50:59.166Z,20.81
2017-03-23T12:51:59.163Z,21.35
2017-03-23T12:52:59.165Z,21.79
2017-03-23T12:53:59.157Z,22.06
2017-03-23T12:54:58.853Z,22.09
2017-03-23T12:55:58.858Z,22.1
2017-03-23T12:56:58.851Z,22.28
2017-03-23T12:57:59.177Z,22.64
2017-03-23T12:58:59.173Z,23.08
2017-03-23T12:59:59.165Z,23.42
2017-03-23T13:00:59.174Z,23.42
2017-03-23T13:01:59.173Z,23.49
2017-03-23T13:02:59.166Z,23.31
2017-03-23T13:03:59.170Z,23.31
2017-03-23T13:04:59.168Z,22.89
2017-03-23T13:05:59.174Z,22.23
2017-03-23T13:06:59.172Z,21.98
2017-03-23T13:07:58.874Z,22.28
2017-03-23T13:08:59.222Z,22.34